| time (UTC) | temp F | wind direction | speed MPH | gust MPH | rain 1hr in | rain 24hr in | rain mn in | humidity % | barometer mb |
| 20260509201459 | 67 | 322 | 8.0 | 10.0 | 0.00 | 0.00 | 0.00 | 61 | 1012.3 |
| 20260509200957 | 68 | 331 | 3.0 | 5.0 | 0.00 | 0.00 | 0.00 | 59 | 1012.1 |
| 20260509200452 | 68 | 300 | 9.0 | 11.0 | 0.00 | 0.00 | 0.00 | 60 | 1012.2 |
| 20260509195949 | 68 | 51 | 3.0 | 3.0 | 0.00 | 0.00 | 0.00 | 59 | 1012.2 |
| 20260509195444 | 67 | 332 | 5.0 | 6.0 | 0.00 | 0.00 | 0.00 | 60 | 1012.3 |
| 20260509194944 | 67 | 83 | 4.0 | 5.0 | 0.00 | 0.00 | 0.00 | 60 | 1012.4 |
| 20260509194440 | 67 | 268 | 10.0 | 11.0 | 0.00 | 0.00 | 0.00 | 60 | 1012.3 |
| 20260509193937 | 66 | 308 | 10.0 | 11.0 | 0.00 | 0.00 | 0.00 | 60 | 1012.4 |
| 20260509193436 | 67 | 339 | 6.0 | 8.0 | 0.00 | 0.00 | 0.00 | 60 | 1012.5 |
| 20260509192933 | 67 | 312 | 10.0 | 13.0 | 0.00 | 0.00 | 0.00 | 60 | 1012.4 |
| 20260509192429 | 67 | 131 | 2.0 | 3.0 | 0.00 | 0.00 | 0.00 | 60 | 1012.3 |
| 20260509191925 | 67 | 310 | 11.0 | 13.0 | 0.00 | 0.00 | 0.00 | 59 | 1012.3 |
| 20260509191420 | 67 | 24 | 6.0 | 8.0 | 0.00 | 0.00 | 0.00 | 60 | 1012.5 |
| 20260509190916 | 67 | 113 | 3.0 | 3.0 | 0.00 | 0.00 | 0.00 | 59 | 1012.4 |
| 20260509190414 | 68 | 35 | 4.0 | 5.0 | 0.00 | 0.00 | 0.00 | 58 | 1012.5 |
| 20260509185911 | 67 | 24 | 3.0 | 5.0 | 0.00 | 0.00 | 0.00 | 58 | 1012.6 |
| 20260509185409 | 67 | 29 | 7.0 | 8.0 | 0.00 | 0.00 | 0.00 | 59 | 1012.5 |
| 20260509184905 | 66 | 250 | 7.0 | 8.0 | 0.00 | 0.00 | 0.00 | 59 | 1012.7 |
| 20260509184402 | 66 | 74 | 2.0 | 3.0 | 0.00 | 0.00 | 0.00 | 57 | 1012.7 |
| 20260509183859 | 66 | 67 | 3.0 | 5.0 | 0.00 | 0.00 | 0.00 | 58 | 1012.8 |
| 20260509183353 | 68 | 283 | 6.0 | 6.0 | 0.00 | 0.00 | 0.00 | 57 | 1013.0 |
| 20260509182849 | 68 | 98 | 1.0 | 2.0 | 0.00 | 0.00 | 0.00 | 54 | 1012.9 |
| 20260509182347 | 67 | 88 | 0.0 | 0.0 | 0.00 | 0.00 | 0.00 | 56 | 1013.2 |
| 20260509181844 | 66 | 316 | 5.0 | 6.0 | 0.00 | 0.00 | 0.00 | 61 | 1013.1 |
| 20260509181341 | 65 | 273 | 5.0 | 6.0 | 0.00 | 0.00 | 0.00 | 59 | 1013.3 |
| 20260509180839 | 65 | 77 | 1.0 | 2.0 | 0.00 | 0.00 | 0.00 | 57 | 1013.5 |
| 20260509180334 | 65 | 85 | 3.0 | 5.0 | 0.00 | 0.00 | 0.00 | 57 | 1013.8 |
| 20260509175832 | 66 | 11 | 3.0 | 5.0 | 0.00 | 0.00 | 0.00 | 56 | 1013.8 |
| 20260509175328 | 65 | 137 | 2.0 | 3.0 | 0.00 | 0.00 | 0.00 | 56 | 1013.9 |
| 20260509174824 | 65 | 256 | 4.0 | 5.0 | 0.00 | 0.00 | 0.00 | 56 | 1013.9 |
| 20260509174319 | 64 | 80 | 1.0 | 2.0 | 0.00 | 0.00 | 0.00 | 57 | 1014.0 |
| 20260509173816 | 64 | 275 | 4.0 | 5.0 | 0.00 | 0.00 | 0.00 | 57 | 1014.0 |
| 20260509173311 | 64 | 77 | 2.0 | 2.0 | 0.00 | 0.00 | 0.00 | 59 | 1014.1 |
| 20260509172807 | 64 | 51 | 3.0 | 3.0 | 0.00 | 0.00 | 0.00 | 56 | 1014.4 |
| 20260509172306 | 64 | 42 | 3.0 | 3.0 | 0.00 | 0.00 | 0.00 | 57 | 1014.3 |
| 20260509171800 | 65 | 75 | 0.0 | 0.0 | 0.00 | 0.00 | 0.00 | 57 | 1014.4 |
| 20260509171256 | 65 | 111 | 1.0 | 2.0 | 0.00 | 0.00 | 0.00 | 55 | 1014.3 |
| 20260509170753 | 65 | 88 | 3.0 | 3.0 | 0.00 | 0.00 | 0.00 | 57 | 1014.1 |
| 20260509170249 | 64 | 325 | 1.0 | 3.0 | 0.00 | 0.00 | 0.00 | 54 | 1014.0 |
| 20260509165748 | 65 | 117 | 4.0 | 5.0 | 0.00 | 0.00 | 0.00 | 54 | 1014.1 |
| 20260509165243 | 64 | 77 | 0.0 | 2.0 | 0.00 | 0.00 | 0.00 | 54 | 1013.8 |
| 20260509164739 | 64 | 159 | 4.0 | 5.0 | 0.00 | 0.00 | 0.00 | 56 | 1014.1 |
| 20260509164235 | 65 | 95 | 2.0 | 3.0 | 0.00 | 0.00 | 0.00 | 54 | 1014.2 |
| 20260509163733 | 65 | 91 | 1.0 | 2.0 | 0.00 | 0.00 | 0.00 | 55 | 1014.1 |
| 20260509163229 | 64 | 90 | 0.0 | 2.0 | 0.00 | 0.00 | 0.00 | 53 | 1014.2 |
| 20260509162727 | 64 | 96 | 2.0 | 3.0 | 0.00 | 0.00 | 0.00 | 54 | 1014.2 |
| 20260509162221 | 66 | 99 | 2.0 | 2.0 | 0.00 | 0.00 | 0.00 | 53 | 1014.1 |
| 20260509161717 | 65 | 86 | 1.0 | 2.0 | 0.00 | 0.00 | 0.00 | 54 | 1014.0 |
| 20260509161214 | 64 | 93 | 3.0 | 3.0 | 0.00 | 0.00 | 0.00 | 54 | 1014.3 |
| 20260509160709 | 64 | 79 | 1.0 | 2.0 | 0.00 | 0.00 | 0.00 | 53 | 1014.3 |
| 20260509160206 | 64 | 83 | 0.0 | 2.0 | 0.00 | 0.00 | 0.00 | 54 | 1014.1 |
| 20260509155701 | 64 | 139 | 3.0 | 5.0 | 0.00 | 0.00 | 0.00 | 56 | 1014.2 |
| 20260509155157 | 63 | 96 | 1.0 | 2.0 | 0.00 | 0.00 | 0.00 | 54 | 1014.5 |
| 20260509154653 | 62 | 77 | 1.0 | 3.0 | 0.00 | 0.00 | 0.00 | 57 | 1014.1 |
| 20260509154151 | 64 | 83 | 1.0 | 2.0 | 0.00 | 0.00 | 0.00 | 54 | 1014.4 |
| 20260509153647 | 63 | 289 | 4.0 | 5.0 | 0.00 | 0.00 | 0.00 | 54 | 1014.2 |
| 20260509153144 | 63 | 54 | 4.0 | 5.0 | 0.00 | 0.00 | 0.00 | 55 | 1014.3 |
| 20260509152640 | 64 | 76 | 2.0 | 3.0 | 0.00 | 0.00 | 0.00 | 53 | 1014.3 |
| 20260509152137 | 64 | 78 | 1.0 | 2.0 | 0.00 | 0.00 | 0.00 | 54 | 1014.6 |
| 20260509151634 | 64 | 86 | 1.0 | 2.0 | 0.00 | 0.00 | 0.00 | 55 | 1014.5 |
| 20260509151131 | 62 | 76 | 2.0 | 2.0 | 0.00 | 0.00 | 0.00 | 59 | 1014.7 |
| 20260509150629 | 61 | 297 | 5.0 | 6.0 | 0.00 | 0.00 | 0.00 | 60 | 1014.8 |
| 20260509150127 | 61 | 43 | 1.0 | 3.0 | 0.00 | 0.00 | 0.00 | 59 | 1014.9 |
| 20260509145623 | 60 | 350 | 6.0 | 6.0 | 0.00 | 0.00 | 0.00 | 61 | 1014.9 |
| 20260509145118 | 60 | 60 | 5.0 | 6.0 | 0.00 | 0.00 | 0.00 | 60 | 1015.1 |
| 20260509144615 | 60 | 53 | 4.0 | 5.0 | 0.00 | 0.00 | 0.00 | 60 | 1015.0 |
| 20260509144112 | 60 | 347 | 5.0 | 6.0 | 0.00 | 0.00 | 0.00 | 61 | 1014.9 |
| 20260509143609 | 59 | 216 | 5.0 | 6.0 | 0.00 | 0.00 | 0.00 | 61 | 1014.8 |
| 20260509143107 | 59 | 358 | 6.0 | 6.0 | 0.00 | 0.00 | 0.00 | 61 | 1014.7 |
| 20260509142602 | 59 | 47 | 3.0 | 3.0 | 0.00 | 0.00 | 0.00 | 61 | 1015.0 |
| 20260509142058 | 59 | 32 | 5.0 | 6.0 | 0.00 | 0.00 | 0.00 | 61 | 1014.8 |
| 20260509141555 | 59 | 53 | 4.0 | 5.0 | 0.00 | 0.00 | 0.00 | 61 | 1014.9 |
| 20260509141051 | 59 | 40 | 3.0 | 3.0 | 0.00 | 0.00 | 0.00 | 61 | 1014.8 |
| 20260509140548 | 59 | 8 | 5.0 | 6.0 | 0.00 | 0.00 | 0.00 | 61 | 1014.7 |
| 20260509140046 | 59 | 84 | 1.0 | 3.0 | 0.00 | 0.00 | 0.00 | 62 | 1014.7 |
| 20260509135543 | 60 | 29 | 5.0 | 5.0 | 0.00 | 0.00 | 0.00 | 60 | 1014.6 |
| 20260509135041 | 60 | 78 | 2.0 | 5.0 | 0.00 | 0.00 | 0.00 | 60 | 1014.7 |
| 20260509134537 | 59 | 73 | 3.0 | 3.0 | 0.00 | 0.00 | 0.00 | 61 | 1014.4 |
| 20260509134035 | 59 | 58 | 1.0 | 3.0 | 0.00 | 0.00 | 0.00 | 61 | 1014.6 |
| 20260509133532 | 59 | 29 | 6.0 | 8.0 | 0.00 | 0.00 | 0.00 | 59 | 1014.7 |
| 20260509133030 | 59 | 48 | 4.0 | 5.0 | 0.00 | 0.00 | 0.00 | 60 | 1014.7 |
| 20260509132528 | 59 | 38 | 5.0 | 6.0 | 0.00 | 0.00 | 0.00 | 61 | 1014.7 |
| 20260509132026 | 59 | 1 | 5.0 | 8.0 | 0.00 | 0.00 | 0.00 | 61 | 1015.0 |
| 20260509131521 | 59 | 342 | 4.0 | 6.0 | 0.00 | 0.00 | 0.00 | 62 | 1014.7 |
| 20260509131019 | 59 | 347 | 5.0 | 8.0 | 0.00 | 0.00 | 0.00 | 60 | 1014.7 |
| 20260509130514 | 59 | 61 | 2.0 | 2.0 | 0.00 | 0.00 | 0.00 | 61 | 1014.5 |
| 20260509130011 | 58 | 53 | 2.0 | 3.0 | 0.00 | 0.00 | 0.00 | 61 | 1014.4 |
| 20260509125508 | 58 | 78 | 4.0 | 5.0 | 0.00 | 0.00 | 0.00 | 60 | 1014.8 |
| 20260509125004 | 59 | 74 | 3.0 | 5.0 | 0.00 | 0.00 | 0.00 | 60 | 1014.9 |
| 20260509124501 | 58 | 56 | 2.0 | 3.0 | 0.00 | 0.00 | 0.00 | 62 | 1014.9 |
| 20260509123958 | 58 | 300 | 6.0 | 8.0 | 0.00 | 0.00 | 0.00 | 61 | 1014.9 |
| 20260509123456 | 58 | 358 | 3.0 | 5.0 | 0.00 | 0.00 | 0.00 | 63 | 1014.9 |
| 20260509122951 | 58 | 81 | 0.0 | 0.0 | 0.00 | 0.00 | 0.00 | 63 | 1014.9 |
| 20260509122448 | 58 | 90 | 1.0 | 2.0 | 0.00 | 0.00 | 0.00 | 63 | 1014.8 |
| 20260509121945 | 57 | 47 | 3.0 | 3.0 | 0.00 | 0.00 | 0.00 | 62 | 1014.7 |
| 20260509121442 | 57 | 74 | 2.0 | 3.0 | 0.00 | 0.00 | 0.00 | 65 | 1014.7 |
| 20260509120940 | 57 | 10 | 5.0 | 5.0 | 0.00 | 0.00 | 0.00 | 63 | 1014.9 |
| 20260509120438 | 57 | 66 | 3.0 | 3.0 | 0.00 | 0.00 | 0.00 | 63 | 1014.8 |
| 20260509115935 | 57 | 64 | 2.0 | 2.0 | 0.00 | 0.00 | 0.00 | 63 | 1014.9 |
| 20260509115432 | 57 | 64 | 2.0 | 3.0 | 0.00 | 0.00 | 0.00 | 63 | 1014.8 |
| 20260509114930 | 57 | 52 | 3.0 | 5.0 | 0.00 | 0.00 | 0.00 | 62 | 1014.8 |
| 20260509114428 | 57 | 79 | 0.0 | 2.0 | 0.00 | 0.00 | 0.00 | 62 | 1014.8 |
| 20260509113928 | 56 | 82 | 1.0 | 2.0 | 0.00 | 0.00 | 0.00 | 62 | 1014.8 |
| 20260509113424 | 56 | 76 | 1.0 | 2.0 | 0.00 | 0.00 | 0.00 | 62 | 1014.6 |
| 20260509112921 | 56 | 71 | 2.0 | 2.0 | 0.00 | 0.00 | 0.00 | 62 | 1014.7 |
| 20260509112419 | 56 | 70 | 2.0 | 2.0 | 0.00 | 0.00 | 0.00 | 62 | 1014.4 |
| 20260509111915 | 56 | 13 | 3.0 | 3.0 | 0.00 | 0.00 | 0.00 | 63 | 1014.5 |
| 20260509111412 | 55 | 38 | 2.0 | 3.0 | 0.00 | 0.00 | 0.00 | 63 | 1014.4 |
| 20260509110910 | 55 | 61 | 2.0 | 3.0 | 0.00 | 0.00 | 0.00 | 63 | 1014.2 |
| 20260509110405 | 55 | 83 | 2.0 | 2.0 | 0.00 | 0.00 | 0.00 | 63 | 1014.2 |
| 20260509105904 | 56 | 67 | 2.0 | 2.0 | 0.00 | 0.00 | 0.00 | 61 | 1014.2 |
| 20260509105402 | 56 | 101 | 1.0 | 2.0 | 0.00 | 0.00 | 0.00 | 61 | 1013.9 |
| 20260509104858 | 56 | 81 | 0.0 | 0.0 | 0.00 | 0.00 | 0.00 | 60 | 1014.0 |
| 20260509104355 | 56 | 84 | 0.0 | 0.0 | 0.00 | 0.00 | 0.00 | 60 | 1013.9 |
| 20260509103853 | 56 | 68 | 0.0 | 2.0 | 0.00 | 0.00 | 0.00 | 60 | 1013.7 |
| 20260509103350 | 56 | 110 | 3.0 | 5.0 | 0.00 | 0.00 | 0.00 | 59 | 1013.7 |
| 20260509102849 | 55 | 82 | 0.0 | 0.0 | 0.00 | 0.00 | 0.00 | 61 | 1014.0 |
| 20260509102346 | 56 | 81 | 0.0 | 0.0 | 0.00 | 0.00 | 0.00 | 61 | 1014.0 |
| 20260509101841 | 55 | 38 | 3.0 | 5.0 | 0.00 | 0.00 | 0.00 | 60 | 1014.2 |
| 20260509101337 | 55 | 77 | 2.0 | 3.0 | 0.00 | 0.00 | 0.00 | 60 | 1013.9 |
| 20260509100836 | 56 | 62 | 2.0 | 3.0 | 0.00 | 0.00 | 0.00 | 60 | 1013.9 |
| 20260509100332 | 56 | 74 | 1.0 | 3.0 | 0.00 | 0.00 | 0.00 | 60 | 1013.7 |
| 20260509095829 | 56 | 87 | 5.0 | 6.0 | 0.00 | 0.00 | 0.00 | 60 | 1013.8 |
| 20260509095326 | 56 | 80 | 0.0 | 0.0 | 0.00 | 0.00 | 0.00 | 61 | 1013.9 |
| 20260509094823 | 55 | 36 | 1.0 | 2.0 | 0.00 | 0.00 | 0.00 | 60 | 1013.8 |
| 20260509094320 | 56 | 87 | 0.0 | 2.0 | 0.00 | 0.00 | 0.00 | 60 | 1013.7 |
| 20260509093818 | 56 | 89 | 1.0 | 2.0 | 0.00 | 0.00 | 0.00 | 60 | 1013.9 |
| 20260509093315 | 56 | 83 | 2.0 | 3.0 | 0.00 | 0.00 | 0.00 | 60 | 1013.9 |
| 20260509092813 | 56 | 51 | 4.0 | 5.0 | 0.00 | 0.00 | 0.00 | 60 | 1014.0 |
| 20260509092311 | 56 | 78 | 1.0 | 2.0 | 0.00 | 0.00 | 0.00 | 60 | 1013.9 |
| 20260509091809 | 56 | 28 | 6.0 | 8.0 | 0.00 | 0.00 | 0.00 | 60 | 1014.0 |
| 20260509091305 | 56 | 43 | 2.0 | 2.0 | 0.00 | 0.00 | 0.00 | 60 | 1014.1 |
| 20260509090803 | 56 | 29 | 4.0 | 5.0 | 0.00 | 0.00 | 0.00 | 59 | 1014.2 |
| 20260509090259 | 56 | 50 | 4.0 | 6.0 | 0.00 | 0.00 | 0.00 | 60 | 1014.0 |
| 20260509085757 | 56 | 342 | 5.0 | 6.0 | 0.00 | 0.00 | 0.00 | 60 | 1014.1 |
| 20260509085254 | 56 | 44 | 7.0 | 10.0 | 0.00 | 0.00 | 0.00 | 60 | 1014.1 |
| 20260509084751 | 55 | 62 | 2.0 | 3.0 | 0.00 | 0.00 | 0.00 | 61 | 1014.2 |
| 20260509084247 | 56 | 74 | 2.0 | 3.0 | 0.00 | 0.00 | 0.00 | 60 | 1014.3 |
| 20260509083745 | 55 | 92 | 3.0 | 5.0 | 0.00 | 0.00 | 0.00 | 61 | 1014.3 |
| 20260509083242 | 56 | 38 | 4.0 | 5.0 | 0.00 | 0.00 | 0.00 | 61 | 1014.4 |
| 20260509082738 | 55 | 76 | 1.0 | 2.0 | 0.00 | 0.00 | 0.00 | 61 | 1014.3 |
| 20260509082235 | 55 | 291 | 3.0 | 3.0 | 0.00 | 0.00 | 0.00 | 61 | 1014.4 |
| 20260509081732 | 55 | 325 | 7.0 | 10.0 | 0.00 | 0.00 | 0.00 | 61 | 1014.2 |
| 20260509081230 | 55 | 78 | 2.0 | 2.0 | 0.00 | 0.00 | 0.00 | 62 | 1014.3 |
| 20260509080727 | 55 | 6 | 4.0 | 8.0 | 0.00 | 0.00 | 0.00 | 61 | 1014.5 |
| 20260509080225 | 55 | 182 | 5.0 | 6.0 | 0.00 | 0.00 | 0.00 | 61 | 1014.5 |
| 20260509075723 | 55 | 50 | 5.0 | 6.0 | 0.00 | 0.00 | 0.00 | 61 | 1014.5 |
| 20260509075220 | 55 | 5 | 5.0 | 8.0 | 0.00 | 0.00 | 0.00 | 63 | 1014.6 |
| 20260509074717 | 55 | 357 | 4.0 | 6.0 | 0.00 | 0.00 | 0.00 | 62 | 1014.6 |
| 20260509074215 | 55 | 55 | 3.0 | 5.0 | 0.00 | 0.00 | 0.00 | 62 | 1014.5 |
| 20260509073711 | 55 | 156 | 3.0 | 5.0 | 0.00 | 0.00 | 0.00 | 62 | 1014.7 |
| 20260509073207 | 55 | 51 | 3.0 | 3.0 | 0.00 | 0.00 | 0.00 | 63 | 1014.6 |
| 20260509072704 | 54 | 31 | 6.0 | 6.0 | 0.00 | 0.00 | 0.00 | 63 | 1014.6 |
| 20260509072201 | 54 | 53 | 4.0 | 5.0 | 0.00 | 0.00 | 0.00 | 63 | 1014.4 |
| 20260509071657 | 54 | 54 | 2.0 | 3.0 | 0.00 | 0.00 | 0.00 | 64 | 1014.4 |
| 20260509071155 | 54 | 81 | 1.0 | 2.0 | 0.00 | 0.00 | 0.00 | 64 | 1014.6 |
| 20260509070651 | 54 | 13 | 2.0 | 3.0 | 0.00 | 0.00 | 0.00 | 63 | 1014.5 |
| 20260509070148 | 54 | 78 | 1.0 | 2.0 | 0.00 | 0.00 | 0.00 | 63 | 1014.6 |
| 20260509065644 | 54 | 63 | 2.0 | 2.0 | 0.00 | 0.00 | 0.00 | 63 | 1014.8 |
| 20260509065140 | 54 | 68 | 4.0 | 5.0 | 0.00 | 0.00 | 0.00 | 63 | 1014.7 |
| 20260509064637 | 54 | 79 | 2.0 | 2.0 | 0.00 | 0.00 | 0.00 | 63 | 1014.6 |
| 20260509064135 | 54 | 47 | 3.0 | 3.0 | 0.00 | 0.00 | 0.00 | 64 | 1014.6 |
| 20260509063632 | 54 | 75 | 2.0 | 2.0 | 0.00 | 0.00 | 0.00 | 65 | 1014.8 |
| 20260509063128 | 54 | 60 | 0.0 | 2.0 | 0.00 | 0.00 | 0.00 | 65 | 1014.7 |
| 20260509062626 | 54 | 77 | 0.0 | 2.0 | 0.00 | 0.00 | 0.00 | 65 | 1014.7 |
| 20260509062122 | 54 | 61 | 2.0 | 2.0 | 0.00 | 0.00 | 0.00 | 64 | 1014.8 |
| 20260509061619 | 53 | 49 | 2.0 | 3.0 | 0.00 | 0.00 | 0.00 | 65 | 1014.6 |
| 20260509061117 | 52 | 76 | 0.0 | 0.0 | 0.00 | 0.00 | 0.00 | 67 | 1014.9 |
| 20260509060615 | 52 | 82 | 0.0 | 0.0 | 0.00 | 0.00 | 0.00 | 68 | 1014.9 |
| 20260509060110 | 52 | 83 | 0.0 | 0.0 | 0.00 | 0.00 | 0.00 | 68 | 1014.9 |
| 20260509055606 | 52 | 82 | 0.0 | 0.0 | 0.00 | 0.00 | 0.00 | 68 | 1014.8 |
| 20260509055102 | 52 | 85 | 0.0 | 0.0 | 0.00 | 0.00 | 0.00 | 68 | 1014.9 |
| 20260509054559 | 52 | 91 | 0.0 | 0.0 | 0.00 | 0.00 | 0.00 | 68 | 1015.0 |
| 20260509054056 | 53 | 83 | 0.0 | 0.0 | 0.00 | 0.00 | 0.00 | 68 | 1014.9 |
| 20260509053555 | 53 | 90 | 0.0 | 0.0 | 0.00 | 0.00 | 0.00 | 66 | 1015.1 |
| 20260509053051 | 53 | 84 | 0.0 | 0.0 | 0.00 | 0.00 | 0.00 | 65 | 1015.0 |
| 20260509052549 | 54 | 87 | 0.0 | 0.0 | 0.00 | 0.00 | 0.00 | 64 | 1014.9 |
| 20260509052047 | 54 | 65 | 0.0 | 0.0 | 0.00 | 0.00 | 0.00 | 62 | 1015.1 |
| 20260509051545 | 54 | 76 | 1.0 | 2.0 | 0.00 | 0.00 | 0.00 | 63 | 1015.1 |
| 20260509051041 | 54 | 70 | 2.0 | 3.0 | 0.00 | 0.00 | 0.00 | 62 | 1015.3 |
| 20260509050538 | 54 | 39 | 3.0 | 3.0 | 0.00 | 0.00 | 0.00 | 63 | 1015.2 |
| 20260509050034 | 54 | 13 | 3.0 | 5.0 | 0.00 | 0.00 | 0.00 | 64 | 1015.3 |
| 20260509045532 | 54 | 31 | 3.0 | 3.0 | 0.00 | 0.00 | 0.00 | 63 | 1015.1 |
| 20260509045029 | 55 | 75 | 3.0 | 5.0 | 0.00 | 0.00 | 0.00 | 62 | 1015.1 |
| 20260509044527 | 55 | 73 | 2.0 | 3.0 | 0.00 | 0.00 | 0.00 | 63 | 1015.1 |
| 20260509044024 | 55 | 73 | 1.0 | 2.0 | 0.00 | 0.00 | 0.00 | 63 | 1015.1 |
| 20260509043520 | 55 | 54 | 2.0 | 3.0 | 0.00 | 0.00 | 0.00 | 63 | 1015.1 |
| 20260509043016 | 55 | 72 | 2.0 | 3.0 | 0.00 | 0.00 | 0.00 | 63 | 1015.2 |
| 20260509042512 | 55 | 71 | 3.0 | 3.0 | 0.00 | 0.00 | 0.00 | 63 | 1015.3 |
| 20260509042008 | 54 | 56 | 3.0 | 5.0 | 0.00 | 0.00 | 0.00 | 64 | 1015.1 |
| 20260509041505 | 54 | 2 | 5.0 | 5.0 | 0.00 | 0.00 | 0.00 | 65 | 1015.1 |
| 20260509041003 | 53 | 68 | 2.0 | 3.0 | 0.00 | 0.00 | 0.00 | 67 | 1015.3 |
| 20260509040501 | 52 | 71 | 2.0 | 3.0 | 0.00 | 0.00 | 0.00 | 71 | 1015.2 |
| 20260509035957 | 51 | 68 | 0.0 | 2.0 | 0.00 | 0.00 | 0.00 | 72 | 1015.3 |
| 20260509035454 | 50 | 81 | 1.0 | 2.0 | 0.00 | 0.00 | 0.00 | 75 | 1015.3 |
| 20260509034951 | 50 | 83 | 0.0 | 0.0 | 0.00 | 0.00 | 0.00 | 75 | 1015.2 |
| 20260509034449 | 50 | 90 | 0.0 | 0.0 | 0.00 | 0.00 | 0.00 | 76 | 1015.3 |
| 20260509033945 | 50 | 90 | 0.0 | 0.0 | 0.00 | 0.00 | 0.00 | 76 | 1015.3 |
| 20260509033443 | 50 | 90 | 0.0 | 0.0 | 0.00 | 0.00 | 0.00 | 76 | 1015.3 |
| 20260509032939 | 50 | 90 | 0.0 | 0.0 | 0.00 | 0.00 | 0.00 | 75 | 1015.4 |
| 20260509032437 | 51 | 90 | 0.0 | 0.0 | 0.00 | 0.00 | 0.00 | 73 | 1015.3 |
| 20260509031934 | 51 | 90 | 0.0 | 0.0 | 0.00 | 0.00 | 0.00 | 73 | 1015.4 |
| 20260509031432 | 52 | 90 | 0.0 | 0.0 | 0.00 | 0.00 | 0.00 | 72 | 1015.6 |
| 20260509030929 | 52 | 90 | 0.0 | 0.0 | 0.00 | 0.00 | 0.00 | 69 | 1015.3 |
| 20260509030427 | 53 | 90 | 0.0 | 0.0 | 0.00 | 0.00 | 0.00 | 69 | 1015.6 |
| 20260509025924 | 53 | 90 | 0.0 | 0.0 | 0.00 | 0.00 | 0.00 | 68 | 1015.8 |
| 20260509025419 | 53 | 90 | 0.0 | 0.0 | 0.00 | 0.00 | 0.00 | 68 | 1015.8 |
| 20260509024914 | 54 | 90 | 0.0 | 0.0 | 0.00 | 0.00 | 0.00 | 67 | 1015.8 |
| 20260509024411 | 54 | 90 | 0.0 | 0.0 | 0.00 | 0.00 | 0.00 | 66 | 1015.8 |
| 20260509023908 | 54 | 90 | 0.0 | 0.0 | 0.00 | 0.00 | 0.00 | 68 | 1015.8 |
| 20260509023405 | 54 | 90 | 1.0 | 2.0 | 0.00 | 0.00 | 0.00 | 67 | 1015.6 |
| 20260509022901 | 54 | 90 | 0.0 | 0.0 | 0.00 | 0.00 | 0.00 | 68 | 1015.5 |
| 20260509022359 | 54 | 90 | 0.0 | 0.0 | 0.00 | 0.00 | 0.00 | 67 | 1015.5 |
| 20260509021856 | 55 | 90 | 0.0 | 0.0 | 0.00 | 0.00 | 0.00 | 66 | 1015.6 |
| 20260509021353 | 55 | 90 | 0.0 | 0.0 | 0.00 | 0.00 | 0.00 | 65 | 1015.5 |
| 20260509020850 | 56 | 90 | 0.0 | 0.0 | 0.00 | 0.00 | 0.00 | 64 | 1015.7 |
| 20260509020349 | 56 | 90 | 0.0 | 0.0 | 0.00 | 0.00 | 0.00 | 63 | 1015.5 |
| 20260509015846 | 56 | 91 | 0.0 | 0.0 | 0.00 | 0.00 | 0.00 | 61 | 1015.7 |
| 20260509015344 | 57 | 85 | 0.0 | 0.0 | 0.00 | 0.00 | 0.00 | 62 | 1015.5 |
| 20260509014840 | 57 | 88 | 0.0 | 2.0 | 0.00 | 0.00 | 0.00 | 64 | 1015.5 |
| 20260509014337 | 57 | 90 | 0.0 | 0.0 | 0.00 | 0.00 | 0.00 | 64 | 1015.5 |
| 20260509013834 | 57 | 81 | 0.0 | 0.0 | 0.00 | 0.00 | 0.00 | 63 | 1015.5 |
| 20260509013330 | 58 | 81 | 0.0 | 0.0 | 0.00 | 0.00 | 0.00 | 61 | 1015.4 |
| 20260509012826 | 58 | 69 | 2.0 | 2.0 | 0.00 | 0.00 | 0.00 | 62 | 1015.3 |
| 20260509012323 | 59 | 86 | 1.0 | 2.0 | 0.00 | 0.00 | 0.00 | 58 | 1015.5 |
| 20260509011820 | 59 | 90 | 1.0 | 2.0 | 0.00 | 0.00 | 0.00 | 58 | 1015.6 |
| 20260509011318 | 59 | 94 | 1.0 | 2.0 | 0.00 | 0.00 | 0.00 | 56 | 1015.5 |
| 20260509010815 | 59 | 85 | 3.0 | 3.0 | 0.00 | 0.00 | 0.00 | 59 | 1015.4 |
| 20260509010312 | 59 | 95 | 2.0 | 2.0 | 0.00 | 0.00 | 0.00 | 55 | 1015.5 |
| 20260509005810 | 59 | 85 | 0.0 | 0.0 | 0.00 | 0.00 | 0.00 | 60 | 1015.3 |
| 20260509005308 | 58 | 83 | 0.0 | 0.0 | 0.00 | 0.00 | 0.00 | 62 | 1015.3 |
| 20260509004808 | 59 | 80 | 0.0 | 0.0 | 0.00 | 0.00 | 0.00 | 64 | 1015.1 |
| 20260509004304 | 59 | 72 | 1.0 | 2.0 | 0.00 | 0.00 | 0.00 | 61 | 1015.3 |
| 20260509003802 | 60 | 79 | 0.0 | 0.0 | 0.00 | 0.00 | 0.00 | 54 | 1015.2 |
| 20260509003300 | 60 | 89 | 0.0 | 0.0 | 0.00 | 0.00 | 0.00 | 55 | 1015.2 |
| 20260509002757 | 60 | 90 | 1.0 | 2.0 | 0.00 | 0.00 | 0.00 | 53 | 1015.1 |
| 20260509002254 | 60 | 87 | 0.0 | 2.0 | 0.00 | 0.00 | 0.00 | 53 | 1015.3 |
| 20260509001752 | 60 | 86 | 0.0 | 0.0 | 0.00 | 0.00 | 0.00 | 51 | 1015.0 |
| 20260509001247 | 61 | 86 | 0.0 | 0.0 | 0.00 | 0.00 | 0.00 | 51 | 1015.0 |
| 20260509000745 | 61 | 86 | 0.0 | 0.0 | 0.00 | 0.00 | 0.00 | 49 | 1014.9 |
| 20260509000242 | 62 | 87 | 0.0 | 0.0 | 0.00 | 0.00 | 0.00 | 47 | 1015.0 |
| 20260508235739 | 62 | 87 | 0.0 | 2.0 | 0.00 | 0.00 | 0.00 | 46 | 1014.9 |
| 20260508235236 | 62 | 88 | 0.0 | 0.0 | 0.00 | 0.00 | 0.00 | 46 | 1014.8 |
| 20260508234733 | 62 | 88 | 0.0 | 0.0 | 0.00 | 0.00 | 0.00 | 45 | 1014.9 |
| 20260508234229 | 62 | 93 | 0.0 | 2.0 | 0.00 | 0.00 | 0.00 | 47 | 1014.8 |
| 20260508233729 | 62 | 87 | 0.0 | 0.0 | 0.00 | 0.00 | 0.00 | 46 | 1014.7 |
| 20260508233227 | 63 | 86 | 0.0 | 0.0 | 0.00 | 0.00 | 0.00 | 48 | 1014.6 |
| 20260508232724 | 63 | 87 | 0.0 | 0.0 | 0.00 | 0.00 | 0.00 | 47 | 1014.7 |
| 20260508232220 | 63 | 87 | 0.0 | 0.0 | 0.00 | 0.00 | 0.00 | 46 | 1014.6 |
| 20260508231718 | 64 | 86 | 0.0 | 0.0 | 0.00 | 0.00 | 0.00 | 44 | 1014.8 |
| 20260508231215 | 64 | 87 | 0.0 | 0.0 | 0.00 | 0.00 | 0.00 | 44 | 1014.5 |
| 20260508230712 | 65 | 81 | 0.0 | 0.0 | 0.00 | 0.00 | 0.00 | 46 | 1014.6 |
| 20260508230208 | 65 | 81 | 0.0 | 0.0 | 0.00 | 0.00 | 0.00 | 42 | 1014.5 |
| 20260508225706 | 65 | 80 | 0.0 | 0.0 | 0.00 | 0.00 | 0.00 | 42 | 1014.5 |
| 20260508225202 | 65 | 85 | 1.0 | 2.0 | 0.00 | 0.00 | 0.00 | 42 | 1014.6 |
| 20260508224700 | 65 | 86 | 0.0 | 0.0 | 0.00 | 0.00 | 0.00 | 43 | 1014.5 |
| 20260508224157 | 65 | 84 | 0.0 | 0.0 | 0.00 | 0.00 | 0.00 | 46 | 1014.7 |
| 20260508223654 | 65 | 88 | 0.0 | 0.0 | 0.00 | 0.00 | 0.00 | 40 | 1014.7 |
| 20260508223152 | 66 | 94 | 0.0 | 0.0 | 0.00 | 0.00 | 0.00 | 40 | 1014.6 |
| 20260508222649 | 66 | 87 | 0.0 | 0.0 | 0.00 | 0.00 | 0.00 | 40 | 1014.6 |
| 20260508222146 | 66 | 64 | 2.0 | 2.0 | 0.00 | 0.00 | 0.00 | 40 | 1014.4 |
| 20260508221642 | 66 | 76 | 0.0 | 0.0 | 0.00 | 0.00 | 0.00 | 40 | 1014.5 |
| 20260508221138 | 66 | 83 | 1.0 | 2.0 | 0.00 | 0.00 | 0.00 | 41 | 1014.4 |
| 20260508220635 | 66 | 69 | 1.0 | 3.0 | 0.00 | 0.00 | 0.00 | 39 | 1014.5 |
| 20260508220132 | 66 | 83 | 0.0 | 0.0 | 0.00 | 0.00 | 0.00 | 39 | 1014.5 |
| 20260508215628 | 66 | 84 | 0.0 | 0.0 | 0.00 | 0.00 | 0.00 | 40 | 1014.5 |
| 20260508215125 | 66 | 30 | 4.0 | 6.0 | 0.00 | 0.00 | 0.00 | 38 | 1014.5 |
| 20260508214622 | 66 | 58 | 4.0 | 6.0 | 0.00 | 0.00 | 0.00 | 36 | 1014.5 |
| 20260508214119 | 66 | 77 | 2.0 | 2.0 | 0.00 | 0.00 | 0.00 | 41 | 1014.6 |
| 20260508213616 | 67 | 77 | 4.0 | 5.0 | 0.00 | 0.00 | 0.00 | 37 | 1014.4 |
| 20260508213112 | 67 | 88 | 1.0 | 2.0 | 0.00 | 0.00 | 0.00 | 38 | 1014.5 |
| 20260508212608 | 67 | 91 | 5.0 | 6.0 | 0.00 | 0.00 | 0.00 | 36 | 1014.4 |
| 20260508212105 | 67 | 71 | 3.0 | 3.0 | 0.00 | 0.00 | 0.00 | 37 | 1014.5 |
| 20260508211600 | 67 | 73 | 3.0 | 5.0 | 0.00 | 0.00 | 0.00 | 36 | 1014.4 |
| 20260508211057 | 67 | 91 | 10.0 | 13.0 | 0.00 | 0.00 | 0.00 | 35 | 1014.6 |
| 20260508210553 | 67 | 83 | 3.0 | 5.0 | 0.00 | 0.00 | 0.00 | 37 | 1014.4 |
| 20260508210051 | 68 | 26 | 5.0 | 10.0 | 0.00 | 0.00 | 0.00 | 38 | 1014.5 |
| 20260508205548 | 68 | 44 | 7.0 | 10.0 | 0.00 | 0.00 | 0.00 | 35 | 1014.6 |
| 20260508205044 | 68 | 70 | 7.0 | 13.0 | 0.00 | 0.00 | 0.00 | 35 | 1014.5 |
| 20260508204541 | 68 | 83 | 10.0 | 16.0 | 0.00 | 0.00 | 0.00 | 35 | 1014.5 |
| 20260508204037 | 69 | 96 | 3.0 | 3.0 | 0.00 | 0.00 | 0.00 | 34 | 1014.6 |
| 20260508203533 | 69 | 26 | 4.0 | 5.0 | 0.00 | 0.00 | 0.00 | 35 | 1014.6 |
| 20260508203029 | 69 | 60 | 11.0 | 18.0 | 0.00 | 0.00 | 0.00 | 34 | 1014.7 |
| 20260508202526 | 70 | 83 | 4.0 | 8.0 | 0.00 | 0.00 | 0.00 | 36 | 1014.7 |
| 20260508202023 | 71 | 96 | 5.0 | 6.0 | 0.00 | 0.00 | 0.00 | 35 | 1014.6 |